createdAt,value
2023-04-11T00:03:33.020Z,56.16
2023-04-11T00:06:00.011Z,55.15
2023-04-11T00:08:27.230Z,54.96
2023-04-11T00:10:54.025Z,55.72
2023-04-11T00:13:20.937Z,55.56
2023-04-11T00:15:47.919Z,55.24
2023-04-11T00:18:14.956Z,56.02
2023-04-11T00:20:41.689Z,57.30
2023-04-11T00:23:08.831Z,57.94
2023-04-11T00:25:37.459Z,57.92
2023-04-11T00:28:04.564Z,58.69
2023-04-11T00:30:31.291Z,58.52
2023-04-11T00:32:59.108Z,58.66
2023-04-11T00:35:26.230Z,59.00
2023-04-11T00:37:56.315Z,59.25
2023-04-11T00:40:23.239Z,58.95
2023-04-11T00:42:50.128Z,58.92
2023-04-11T00:45:17.255Z,58.35
2023-04-11T00:47:44.320Z,57.97
2023-04-11T00:50:14.252Z,57.97
2023-04-11T00:52:42.787Z,58.53
2023-04-11T00:55:10.743Z,59.63
2023-04-11T00:57:38.362Z,59.96
2023-04-11T01:00:09.791Z,61.02
2023-04-11T01:02:43.611Z,60.10
2023-04-11T01:05:12.771Z,59.73
2023-04-11T01:07:43.408Z,59.28
2023-04-11T01:10:11.611Z,57.51
2023-04-11T01:12:39.308Z,56.93
2023-04-11T01:15:06.961Z,57.18
2023-04-11T01:17:34.078Z,56.08
2023-04-11T01:20:01.503Z,55.41
2023-04-11T01:22:29.001Z,56.18
2023-04-11T01:24:56.832Z,56.68
2023-04-11T01:27:23.956Z,55.74
2023-04-11T01:29:51.120Z,55.97
2023-04-11T01:32:18.615Z,57.39
2023-04-11T01:34:48.335Z,58.14
2023-04-11T01:37:15.647Z,58.23
2023-04-11T01:39:42.523Z,58.10
2023-04-11T01:42:10.193Z,58.44
2023-04-11T01:44:37.836Z,57.71
2023-04-11T01:47:05.820Z,55.32
2023-04-11T01:49:33.574Z,54.84
2023-04-11T01:52:00.349Z,55.30
2023-04-11T01:54:27.075Z,55.07
2023-04-11T01:56:55.012Z,54.40
2023-04-11T01:59:21.795Z,54.29
2023-04-11T02:01:48.610Z,54.27
2023-04-11T02:04:15.605Z,54.54
2023-04-11T02:06:42.390Z,51.89
2023-04-11T02:09:09.274Z,52.27
2023-04-11T02:11:36.481Z,52.06
2023-04-11T02:14:03.923Z,51.16
2023-04-11T02:16:30.914Z,52.46
2023-04-11T02:18:59.044Z,53.12
2023-04-11T02:21:25.871Z,54.20
2023-04-11T02:23:52.601Z,54.42
2023-04-11T02:26:20.799Z,53.56
2023-04-11T02:28:47.819Z,53.97
2023-04-11T02:31:14.466Z,53.81
2023-04-11T02:33:43.457Z,54.88
2023-04-11T02:36:12.436Z,56.08
2023-04-11T02:38:39.401Z,56.95
2023-04-11T02:41:08.453Z,57.12
2023-04-11T02:43:35.568Z,58.95
2023-04-11T02:46:12.525Z,59.15
2023-04-11T02:48:42.421Z,60.51
2023-04-11T02:51:10.390Z,60.44
2023-04-11T02:53:37.431Z,60.32
2023-04-11T02:56:04.830Z,60.40
2023-04-11T02:58:31.697Z,60.30
2023-04-11T03:01:04.113Z,60.00
2023-04-11T03:03:31.082Z,59.55
2023-04-11T03:05:58.617Z,59.27
2023-04-11T03:08:25.404Z,58.50
2023-04-11T03:10:53.811Z,59.35
2023-04-11T03:13:23.055Z,58.89
2023-04-11T03:15:49.970Z,58.06
2023-04-11T03:18:18.231Z,57.21
2023-04-11T03:20:47.386Z,56.74
2023-04-11T03:23:16.836Z,56.12
2023-04-11T03:25:44.753Z,56.69
2023-04-11T03:28:12.835Z,57.32
2023-04-11T03:30:41.139Z,57.07
2023-04-11T03:33:09.162Z,58.02
2023-04-11T03:35:37.120Z,59.43
2023-04-11T03:38:04.035Z,58.36
2023-04-11T03:40:30.908Z,58.71
2023-04-11T03:43:06.836Z,58.52
2023-04-11T03:45:35.790Z,57.15
2023-04-11T03:48:06.372Z,57.64
2023-04-11T03:50:46.675Z,57.53
2023-04-11T03:53:16.052Z,57.19
2023-04-11T03:55:45.104Z,57.25
2023-04-11T03:58:15.773Z,56.64
2023-04-11T04:00:43.436Z,56.73
2023-04-11T04:03:10.461Z,55.58
2023-04-11T04:05:42.803Z,54.89
2023-04-11T04:08:11.302Z,55.06
2023-04-11T04:10:42.825Z,55.00
2023-04-11T04:13:09.968Z,54.70
2023-04-11T04:15:42.617Z,55.04
2023-04-11T04:18:12.014Z,55.33
2023-04-11T04:20:47.107Z,55.57
2023-04-11T04:23:14.532Z,56.81
2023-04-11T04:26:08.533Z,56.74
2023-04-11T04:28:36.755Z,56.48
2023-04-11T04:31:04.426Z,56.56
2023-04-11T04:33:42.764Z,57.58
2023-04-11T04:36:17.888Z,57.49
2023-04-11T04:38:48.348Z,56.47
2023-04-11T04:41:16.064Z,56.52
2023-04-11T04:43:54.924Z,56.81
2023-04-11T04:46:36.632Z,56.92
2023-04-11T04:49:06.184Z,57.15
2023-04-11T04:51:40.435Z,57.49
2023-04-11T04:54:07.982Z,57.03
2023-04-11T04:56:35.260Z,57.74
2023-04-11T04:59:03.545Z,57.80
2023-04-11T05:01:33.168Z,57.40
2023-04-11T05:04:02.702Z,58.17
2023-04-11T05:06:52.811Z,57.87
2023-04-11T05:09:20.481Z,56.96
2023-04-11T05:11:50.725Z,56.94
2023-04-11T05:14:19.180Z,57.21
2023-04-11T05:16:46.888Z,56.85
2023-04-11T05:19:14.077Z,57.58
2023-04-11T05:21:45.915Z,57.13
2023-04-11T05:24:13.304Z,57.79
2023-04-11T05:26:40.859Z,57.54
2023-04-11T05:29:08.972Z,57.01
2023-04-11T05:31:38.813Z,58.29
2023-04-11T05:34:06.086Z,58.11
2023-04-11T05:36:33.440Z,59.22
2023-04-11T05:39:01.833Z,59.66
2023-04-11T05:41:28.715Z,59.47
2023-04-11T05:43:56.035Z,59.57
2023-04-11T05:46:23.087Z,59.52
2023-04-11T05:48:50.059Z,60.26
2023-04-11T05:51:17.455Z,60.18
2023-04-11T05:53:44.970Z,60.47
2023-04-11T05:56:13.119Z,59.94
2023-04-11T05:58:42.344Z,61.02
2023-04-11T06:01:14.325Z,60.57
2023-04-11T06:03:41.285Z,60.02
2023-04-11T06:06:08.719Z,60.59
2023-04-11T06:08:35.487Z,62.35
2023-04-11T06:11:03.083Z,63.56
2023-04-11T06:13:30.411Z,64.60
2023-04-11T06:15:57.382Z,65.37
2023-04-11T06:18:24.777Z,65.96
2023-04-11T06:20:51.808Z,65.36
2023-04-11T06:23:18.788Z,65.48
2023-04-11T06:25:46.014Z,65.91
2023-04-11T06:28:14.024Z,66.39
2023-04-11T06:30:40.814Z,66.03
2023-04-11T06:33:07.631Z,67.47
2023-04-11T06:35:34.796Z,66.96
2023-04-11T06:38:01.674Z,66.99
2023-04-11T06:40:28.654Z,67.11
2023-04-11T06:42:58.174Z,67.08
2023-04-11T06:45:25.108Z,66.28
2023-04-11T06:47:52.136Z,66.74
2023-04-11T06:50:19.049Z,66.66
2023-04-11T06:52:46.420Z,67.85
2023-04-11T06:55:15.533Z,67.82
2023-04-11T06:57:44.169Z,66.86
2023-04-11T07:00:13.768Z,67.51
2023-04-11T07:02:41.213Z,67.29
2023-04-11T07:05:39.404Z,68.00
2023-04-11T07:08:06.833Z,67.74
2023-04-11T07:10:33.677Z,67.87
2023-04-11T07:13:00.794Z,68.01
2023-04-11T07:15:28.528Z,67.34
2023-04-11T07:17:56.524Z,67.10
2023-04-11T07:20:23.435Z,67.73
2023-04-11T07:22:50.527Z,65.72
2023-04-11T07:25:17.349Z,64.92
2023-04-11T07:27:46.693Z,65.19
2023-04-11T07:30:14.042Z,64.25
2023-04-11T07:32:41.243Z,64.97
2023-04-11T07:35:08.798Z,64.26
2023-04-11T07:37:35.708Z,64.28
2023-04-11T07:40:06.594Z,64.16
2023-04-11T07:42:33.425Z,65.73
2023-04-11T07:45:00.336Z,64.83
2023-04-11T07:47:27.276Z,65.02
2023-04-11T07:49:54.371Z,64.58
2023-04-11T07:52:21.251Z,65.67
2023-04-11T07:54:48.150Z,64.88
2023-04-11T07:57:14.942Z,65.39
2023-04-11T07:59:42.453Z,65.54
2023-04-11T08:02:09.873Z,65.57
2023-04-11T08:04:37.806Z,66.58
2023-04-11T08:07:04.844Z,66.05
2023-04-11T08:09:31.538Z,66.26
2023-04-11T08:11:58.703Z,65.77
2023-04-11T08:14:26.072Z,64.39
2023-04-11T08:16:53.151Z,64.39
2023-04-11T08:19:21.879Z,64.49
2023-04-11T08:21:48.941Z,64.47
2023-04-11T08:24:15.983Z,65.01
2023-04-11T08:26:43.357Z,64.99
2023-04-11T08:29:13.000Z,66.65
2023-04-11T08:31:46.790Z,66.66
2023-04-11T08:34:14.416Z,66.28
2023-04-11T08:36:41.772Z,66.74
2023-04-11T08:39:08.895Z,67.06
2023-04-11T08:41:37.719Z,67.32
2023-04-11T08:44:04.822Z,67.90
2023-04-11T08:46:34.230Z,69.94
2023-04-11T08:49:01.781Z,70.35
2023-04-11T08:51:28.789Z,70.48
2023-04-11T08:54:00.137Z,70.14
2023-04-11T08:56:27.057Z,69.93
2023-04-11T08:58:54.114Z,70.25
2023-04-11T09:01:32.620Z,71.22
2023-04-11T09:04:00.505Z,70.74
2023-04-11T09:06:30.971Z,71.18
2023-04-11T09:09:05.649Z,72.08
2023-04-11T09:11:52.847Z,75.39
2023-04-11T09:14:25.064Z,74.95
2023-04-11T09:17:06.760Z,74.14
2023-04-11T09:19:34.911Z,72.56
2023-04-11T09:22:07.113Z,70.93
2023-04-11T09:24:35.836Z,72.93
2023-04-11T09:27:24.511Z,72.27
2023-04-11T09:29:51.406Z,69.86
2023-04-11T09:32:31.415Z,69.16
2023-04-11T09:35:12.219Z,68.87
2023-04-11T09:37:44.210Z,67.89
2023-04-11T09:40:12.244Z,67.55
2023-04-11T09:42:43.029Z,67.09
2023-04-11T09:45:19.064Z,66.34
2023-04-11T09:47:48.312Z,65.12
2023-04-11T09:50:16.137Z,65.45
2023-04-11T09:52:44.751Z,65.33
2023-04-11T09:55:14.845Z,64.94
2023-04-11T09:57:46.673Z,64.61
2023-04-11T10:00:32.719Z,63.48
2023-04-11T10:03:00.021Z,63.82
2023-04-11T10:05:30.955Z,63.50
2023-04-11T10:08:25.648Z,61.61
2023-04-11T10:10:53.258Z,61.93
2023-04-11T10:13:39.735Z,61.77
2023-04-11T10:16:11.542Z,63.05
2023-04-11T10:19:00.352Z,62.89
2023-04-11T10:21:30.648Z,61.30
2023-04-11T10:24:14.965Z,62.35
2023-04-11T10:26:53.278Z,63.22
2023-04-11T10:29:40.503Z,61.34
2023-04-11T10:32:12.251Z,59.69
2023-04-11T10:34:42.095Z,60.27
2023-04-11T10:37:10.049Z,60.73
2023-04-11T10:39:52.175Z,62.64
2023-04-11T10:42:45.826Z,63.65
2023-04-11T10:45:24.931Z,63.22
2023-04-11T10:47:51.980Z,64.01
2023-04-11T10:50:31.659Z,62.70
2023-04-11T10:53:00.262Z,63.38
2023-04-11T10:55:29.535Z,64.02
2023-04-11T10:58:22.542Z,62.59
2023-04-11T11:00:53.029Z,62.05
2023-04-11T11:03:21.612Z,61.31
2023-04-11T11:05:58.877Z,61.30
2023-04-11T11:08:31.823Z,60.48
2023-04-11T11:11:02.251Z,59.42
2023-04-11T11:13:52.989Z,59.15
2023-04-11T11:16:25.213Z,59.80
2023-04-11T11:18:53.981Z,59.79
2023-04-11T11:21:28.823Z,59.24
2023-04-11T11:23:57.167Z,58.00
2023-04-11T11:26:38.324Z,58.61
2023-04-11T11:29:05.993Z,57.67
2023-04-11T11:31:39.312Z,57.84
2023-04-11T11:34:23.071Z,58.10
2023-04-11T11:36:54.212Z,57.73
2023-04-11T11:39:23.297Z,58.57
2023-04-11T11:41:51.209Z,57.79
2023-04-11T11:44:37.663Z,56.58
2023-04-11T11:47:09.430Z,55.06
2023-04-11T11:49:52.779Z,55.66
2023-04-11T11:52:40.638Z,56.79
2023-04-11T11:55:19.812Z,54.73
2023-04-11T11:57:47.960Z,52.96
2023-04-11T12:00:23.509Z,50.69
2023-04-11T12:02:53.224Z,51.30
2023-04-11T12:05:21.051Z,52.60
2023-04-11T12:07:55.858Z,51.65
2023-04-11T12:10:23.590Z,50.13
2023-04-11T12:12:53.659Z,50.25
2023-04-11T12:15:23.397Z,52.39
2023-04-11T12:17:55.050Z,50.76
2023-04-11T12:20:26.848Z,50.76
2023-04-11T12:22:55.079Z,48.72
2023-04-11T12:25:22.460Z,49.25
2023-04-11T12:27:49.465Z,48.11
2023-04-11T12:30:16.308Z,47.11
2023-04-11T12:32:44.718Z,47.57
2023-04-11T12:35:12.618Z,45.98
2023-04-11T12:37:39.673Z,44.09
2023-04-11T12:40:11.312Z,46.94
2023-04-11T12:42:53.063Z,45.66
2023-04-11T12:45:23.616Z,45.37
2023-04-11T12:47:51.090Z,44.16
2023-04-11T12:50:18.184Z,42.63
2023-04-11T12:52:45.573Z,41.69
2023-04-11T12:55:13.758Z,42.17
2023-04-11T12:57:41.734Z,43.57
2023-04-11T13:00:11.873Z,43.64
2023-04-11T13:02:43.950Z,46.04
2023-04-11T13:05:15.667Z,47.84
2023-04-11T13:07:45.241Z,49.05
2023-04-11T13:10:14.112Z,50.13
2023-04-11T13:12:44.605Z,50.56
2023-04-11T13:15:13.472Z,51.16
2023-04-11T13:17:40.744Z,52.08
2023-04-11T13:20:12.858Z,55.16
2023-04-11T13:22:41.455Z,60.50
2023-04-11T13:25:09.719Z,62.42
2023-04-11T13:27:37.365Z,64.86
2023-04-11T13:30:08.096Z,64.30
2023-04-11T13:32:35.030Z,64.98
2023-04-11T13:35:03.393Z,66.02
2023-04-11T13:37:30.313Z,60.49
2023-04-11T13:39:57.093Z,60.75
2023-04-11T13:42:23.988Z,61.59
2023-04-11T13:44:50.784Z,60.42
2023-04-11T13:47:17.914Z,60.87
2023-04-11T13:49:44.905Z,58.20
2023-04-11T13:52:11.864Z,56.91
2023-04-11T13:54:39.203Z,57.24
2023-04-11T13:57:09.404Z,58.58
2023-04-11T13:59:36.579Z,60.54
2023-04-11T14:02:03.728Z,59.98
2023-04-11T14:04:31.240Z,58.82
2023-04-11T14:06:58.429Z,57.31
2023-04-11T14:09:25.482Z,57.64
2023-04-11T14:11:52.516Z,58.06
2023-04-11T14:14:20.115Z,57.81
2023-04-11T14:16:47.065Z,58.50
2023-04-11T14:19:14.885Z,59.78
2023-04-11T14:21:41.970Z,60.22
2023-04-11T14:24:09.616Z,61.02
2023-04-11T14:26:36.647Z,60.57
2023-04-11T14:29:04.433Z,60.18
2023-04-11T14:31:31.932Z,59.87
2023-04-11T14:33:59.133Z,61.13
2023-04-11T14:36:27.689Z,60.43
2023-04-11T14:38:54.595Z,60.30
2023-04-11T14:41:21.655Z,60.49
2023-04-11T14:43:48.773Z,60.60
2023-04-11T14:46:16.169Z,59.45
2023-04-11T14:48:43.242Z,59.21
2023-04-11T14:51:10.236Z,60.08
2023-04-11T14:53:38.668Z,57.96
2023-04-11T14:56:06.549Z,57.56
2023-04-11T14:58:33.997Z,57.81
2023-04-11T15:01:01.432Z,57.93
2023-04-11T15:03:28.829Z,57.96
2023-04-11T15:05:55.971Z,57.97
2023-04-11T15:08:22.887Z,56.81
2023-04-11T15:10:54.679Z,57.18
2023-04-11T15:13:22.846Z,55.31
2023-04-11T15:15:50.341Z,53.33
2023-04-11T15:18:24.905Z,53.73
2023-04-11T15:20:53.282Z,54.21
2023-04-11T15:23:22.128Z,53.04
2023-04-11T15:25:57.138Z,54.74
2023-04-11T15:28:26.148Z,53.94
2023-04-11T15:30:54.371Z,52.95
2023-04-11T15:33:24.493Z,53.05
2023-04-11T15:35:54.123Z,52.67
2023-04-11T15:38:23.373Z,51.51
2023-04-11T15:40:51.942Z,48.39
2023-04-11T15:43:19.973Z,46.93
2023-04-11T15:45:47.929Z,47.34
2023-04-11T15:48:14.724Z,48.27
2023-04-11T15:50:42.727Z,49.13
2023-04-11T15:53:09.995Z,48.82
2023-04-11T15:55:42.616Z,48.29
2023-04-11T15:58:09.912Z,48.39
2023-04-11T16:00:38.577Z,49.19
2023-04-11T16:03:10.800Z,49.98
2023-04-11T16:05:41.000Z,50.66
2023-04-11T16:08:08.204Z,50.32
2023-04-11T16:10:35.589Z,49.72
2023-04-11T16:13:03.576Z,50.01
2023-04-11T16:15:30.829Z,50.37
2023-04-11T16:17:57.750Z,51.14
2023-04-11T16:20:24.632Z,48.69
2023-04-11T16:22:51.903Z,50.43
2023-04-11T16:25:21.738Z,50.37
2023-04-11T16:27:51.313Z,50.88
2023-04-11T16:30:18.273Z,50.66
2023-04-11T16:32:45.564Z,51.42
2023-04-11T16:35:13.409Z,52.75
2023-04-11T16:37:40.420Z,52.42
2023-04-11T16:40:11.490Z,52.50
2023-04-11T16:42:39.880Z,53.28
2023-04-11T16:45:08.204Z,53.26
2023-04-11T16:47:36.180Z,53.48
2023-04-11T16:50:04.234Z,53.69
2023-04-11T16:52:32.008Z,52.94
2023-04-11T16:54:58.974Z,52.84
2023-04-11T16:57:25.773Z,54.66
2023-04-11T16:59:53.198Z,55.53
2023-04-11T17:02:20.556Z,55.52
2023-04-11T17:04:47.794Z,56.20
2023-04-11T17:07:14.928Z,56.48
2023-04-11T17:09:42.017Z,56.22
2023-04-11T17:12:09.145Z,56.46
2023-04-11T17:14:36.602Z,55.71
2023-04-11T17:17:05.809Z,55.27
2023-04-11T17:19:33.266Z,54.91
2023-04-11T17:22:00.723Z,55.92
2023-04-11T17:24:27.607Z,56.54
2023-04-11T17:26:55.510Z,55.90
2023-04-11T17:29:22.707Z,55.87
2023-04-11T17:31:55.081Z,55.36
2023-04-11T17:34:22.130Z,54.57
2023-04-11T17:36:51.340Z,51.36
2023-04-11T17:39:18.841Z,51.09
2023-04-11T17:41:46.087Z,50.31
2023-04-11T17:44:13.491Z,49.12
2023-04-11T17:46:41.465Z,48.84
2023-04-11T17:49:08.751Z,49.21
2023-04-11T17:51:42.923Z,50.08
2023-04-11T17:54:13.158Z,49.98
2023-04-11T17:56:40.571Z,51.41
2023-04-11T17:59:07.412Z,50.60
2023-04-11T18:01:34.516Z,52.02
2023-04-11T18:04:02.225Z,51.66
2023-04-11T18:06:29.621Z,52.91
2023-04-11T18:08:56.398Z,52.50
2023-04-11T18:11:23.215Z,53.31
2023-04-11T18:13:50.610Z,50.93
2023-04-11T18:16:18.391Z,50.55
2023-04-11T18:18:47.747Z,51.03
2023-04-11T18:21:16.590Z,49.92
2023-04-11T18:23:43.588Z,50.60
2023-04-11T18:26:10.463Z,50.63
2023-04-11T18:28:37.339Z,49.51
2023-04-11T18:31:04.858Z,47.70
2023-04-11T18:33:32.148Z,46.20
2023-04-11T18:35:59.261Z,46.32
2023-04-11T18:38:27.464Z,45.89
2023-04-11T18:40:56.489Z,46.51
2023-04-11T18:43:24.766Z,47.02
2023-04-11T18:45:51.960Z,48.02
2023-04-11T18:48:18.921Z,49.11
2023-04-11T18:50:48.650Z,48.97
2023-04-11T18:53:16.078Z,48.41
2023-04-11T18:55:43.096Z,48.78
2023-04-11T18:58:11.838Z,49.51
2023-04-11T19:00:40.849Z,50.45
2023-04-11T19:03:15.287Z,51.60
2023-04-11T19:05:43.949Z,51.43
2023-04-11T19:08:11.212Z,50.85
2023-04-11T19:10:38.175Z,51.65
2023-04-11T19:13:06.371Z,53.70
2023-04-11T19:15:33.386Z,53.84
2023-04-11T19:18:00.832Z,54.54
2023-04-11T19:20:28.504Z,54.78
2023-04-11T19:22:55.386Z,55.10
2023-04-11T19:25:22.329Z,55.03
2023-04-11T19:27:49.765Z,54.77
2023-04-11T19:30:17.072Z,55.62
2023-04-11T19:32:46.123Z,55.63
2023-04-11T19:35:14.147Z,55.44
2023-04-11T19:37:41.266Z,54.28
2023-04-11T19:40:15.691Z,54.82
2023-04-11T19:42:44.211Z,55.32
2023-04-11T19:45:11.541Z,55.00
2023-04-11T19:47:40.451Z,54.88
2023-04-11T19:50:12.185Z,55.98
2023-04-11T19:52:40.031Z,55.94
2023-04-11T19:55:07.711Z,55.22
2023-04-11T19:57:35.170Z,54.91
2023-04-11T20:00:02.420Z,55.50
2023-04-11T20:02:32.070Z,54.04
2023-04-11T20:05:01.740Z,53.93
2023-04-11T20:07:28.799Z,52.80
2023-04-11T20:09:56.211Z,51.94
2023-04-11T20:12:23.150Z,52.56
2023-04-11T20:14:50.234Z,54.00
2023-04-11T20:17:27.823Z,55.17
2023-04-11T20:19:55.916Z,55.38
2023-04-11T20:22:23.470Z,53.20
2023-04-11T20:24:50.560Z,52.60
2023-04-11T20:27:18.266Z,52.35
2023-04-11T20:29:46.032Z,52.80
2023-04-11T20:32:12.934Z,53.70
2023-04-11T20:34:39.978Z,53.65
2023-04-11T20:37:06.999Z,54.67
2023-04-11T20:39:33.944Z,54.52
2023-04-11T20:42:11.576Z,55.34
2023-04-11T20:44:42.672Z,56.65
2023-04-11T20:47:09.627Z,59.12
2023-04-11T20:49:36.541Z,60.53
2023-04-11T20:52:05.995Z,61.28
2023-04-11T20:54:33.496Z,59.72
2023-04-11T20:57:01.507Z,57.55
2023-04-11T20:59:30.110Z,60.03
2023-04-11T21:01:57.307Z,61.66
2023-04-11T21:04:24.300Z,62.68
2023-04-11T21:06:51.617Z,62.16
2023-04-11T21:09:18.804Z,62.98
2023-04-11T21:11:45.743Z,62.08
2023-04-11T21:14:12.579Z,61.39
2023-04-11T21:16:40.008Z,60.10
2023-04-11T21:19:06.960Z,60.29
2023-04-11T21:21:33.719Z,62.04
2023-04-11T21:24:03.345Z,63.45
2023-04-11T21:26:30.638Z,60.40
2023-04-11T21:28:57.516Z,58.41
2023-04-11T21:31:24.352Z,58.45
2023-04-11T21:33:51.913Z,59.32
2023-04-11T21:36:19.118Z,58.58
2023-04-11T21:38:45.956Z,58.96
2023-04-11T21:41:13.118Z,59.35
2023-04-11T21:43:41.064Z,63.63
2023-04-11T21:46:08.154Z,60.63
2023-04-11T21:48:35.383Z,61.14
2023-04-11T21:51:03.815Z,60.80
2023-04-11T21:53:30.859Z,59.69
2023-04-11T21:55:57.729Z,62.84
2023-04-11T21:58:29.583Z,64.32
2023-04-11T22:00:57.496Z,63.22
2023-04-11T22:03:24.785Z,61.18
2023-04-11T22:05:52.567Z,63.54
2023-04-11T22:08:20.435Z,64.61
2023-04-11T22:10:48.387Z,64.71
2023-04-11T22:13:19.545Z,64.39
2023-04-11T22:15:48.802Z,65.12
2023-04-11T22:18:26.342Z,66.78
2023-04-11T22:20:54.534Z,67.19
2023-04-11T22:23:21.882Z,67.40
2023-04-11T22:25:57.580Z,67.16
2023-04-11T22:28:26.177Z,66.89
2023-04-11T22:30:53.050Z,65.86
2023-04-11T22:33:20.222Z,66.04
2023-04-11T22:35:50.858Z,65.69
2023-04-11T22:38:17.656Z,63.28
2023-04-11T22:40:44.623Z,64.11
2023-04-11T22:43:11.729Z,62.40
2023-04-11T22:45:38.649Z,60.95
2023-04-11T22:48:06.291Z,60.48
2023-04-11T22:50:37.406Z,60.69
2023-04-11T22:53:04.363Z,60.04
2023-04-11T22:55:34.436Z,60.26
2023-04-11T22:58:02.347Z,61.35
2023-04-11T23:00:30.130Z,60.57
2023-04-11T23:02:59.632Z,60.97
2023-04-11T23:05:27.102Z,60.34
2023-04-11T23:07:54.216Z,60.27
2023-04-11T23:10:21.076Z,60.39
2023-04-11T23:12:49.166Z,59.49
2023-04-11T23:15:16.367Z,60.50
2023-04-11T23:17:43.801Z,59.04
2023-04-11T23:20:12.488Z,59.17
2023-04-11T23:22:45.008Z,59.67
2023-04-11T23:25:15.115Z,59.33
2023-04-11T23:27:43.587Z,58.43
2023-04-11T23:30:11.933Z,59.73
2023-04-11T23:32:39.932Z,59.88
2023-04-11T23:35:08.134Z,59.89
2023-04-11T23:37:35.177Z,60.21
2023-04-11T23:40:10.871Z,62.16
2023-04-11T23:42:39.141Z,61.17
2023-04-11T23:45:07.203Z,60.50
2023-04-11T23:50:22.728Z,59.90
2023-04-11T23:52:57.333Z,59.55
2023-04-11T23:55:24.550Z,60.14
2023-04-11T23:57:53.611Z,60.61
